1878 Hurricane NOT_NAMED (1878248N13322)


IBTrACS version v04r00. Visit IBTrACS website for data access.
Please direct all questions to the IBTrACS Q and A forum

Storm track - Intensity - Wind Radii - Intensity Data - Source Data - All data

Summary Information

Storm ID 1878248N13322
Start Sep 4 12Z
Max Intensity 80 kt (Sep 7 18Z)
End Sep 18 18Z
ATCF IDs
Track status Best track data.

Storm track plot

Map of storm track

Intensity plots

Map of storm track

Radial wind information

No radial wind information for this storm


Position and Intensity Table

BASIN ISO_TIME_________ NATURE LAT LON MLC WIND
degrees north degrees east kts
NA 1878-09-04 12:00:00 TS 12.50 -37.80 30
NA 15:00:00 TS 12.75 -38.35 30
NA 18:00:00 TS 13.00 -38.90 30
NA 21:00:00 TS 13.24 -39.45 32
NA 1878-09-05 00:00:00 TS 13.50 -40.00 35
NA 03:00:00 TS 13.78 -40.40 37
NA 06:00:00 TS 14.10 -41.10 40
NA 09:00:00 TS 14.44 -42.65 42
NA 12:00:00 TS 14.80 -44.20 45
NA 15:00:00 TS 15.18 -44.90 47
NA 18:00:00 TS 15.60 -45.30 50
NA 21:00:00 TS 16.03 -45.85 52
NA 1878-09-06 00:00:00 TS 16.50 -46.40 55
NA 03:00:00 TS 16.98 -46.95 57
NA 06:00:00 TS 17.50 -47.50 60
NA 09:00:00 TS 18.04 -48.05 60
NA 12:00:00 TS 18.60 -48.60 60
NA 15:00:00 TS 19.15 -49.15 65
NA 18:00:00 TS 19.70 -49.70 70
NA 21:00:00 TS 20.25 -50.25 72
NA 1878-09-07 00:00:00 TS 20.80 -50.80 75
NA 03:00:00 TS 21.35 -51.35 75
NA 06:00:00 TS 21.90 -51.90 75
NA 09:00:00 TS 22.44 -52.46 75
NA 12:00:00 TS 23.00 -53.00 75
NA 15:00:00 TS 23.60 -53.51 77
NA 18:00:00 TS 24.20 -54.00 80
NA 21:00:00 TS 24.76 -54.50 80
NA 1878-09-08 00:00:00 TS 25.30 -55.00 80
NA 03:00:00 TS 25.85 -55.50 80
NA 06:00:00 TS 26.40 -56.00 80
NA 09:00:00 TS 26.95 -56.54 80
NA 12:00:00 TS 27.50 -57.00 80
NA 15:00:00 TS 28.05 -57.25 80
NA 18:00:00 TS 28.60 -57.40 80
NA 21:00:00 TS 29.15 -57.57 80
NA 1878-09-09 00:00:00 TS 29.70 -57.70 80
NA 03:00:00 TS 30.26 -57.77 80
NA 06:00:00 TS 30.80 -57.80 80
NA 09:00:00 TS 31.32 -57.82 80
NA 12:00:00 TS 31.80 -57.80 80
NA 15:00:00 TS 32.21 -57.73 80
NA 18:00:00 TS 32.60 -57.60 80
NA 21:00:00 TS 33.05 -57.42 80
NA 1878-09-10 00:00:00 TS 33.50 -57.20 80
NA 03:00:00 TS 33.90 -56.99 80
NA 06:00:00 TS 34.30 -56.80 80
NA 09:00:00 TS 34.80 -56.64 80
NA 12:00:00 TS 35.20 -56.50 80
NA 15:00:00 TS 35.31 -56.35 80
NA 18:00:00 TS 35.30 -56.20 80
NA 21:00:00 TS 35.35 -56.05 80
NA 1878-09-11 00:00:00 TS 35.40 -55.90 80
NA 03:00:00 TS 35.46 -55.74 80
NA 06:00:00 TS 35.50 -55.60 80
NA 09:00:00 TS 35.50 -55.51 80
NA 12:00:00 TS 35.50 -55.40 80
NA 15:00:00 TS 35.54 -55.17 80
NA 18:00:00 TS 35.60 -54.90 80
NA 21:00:00 TS 35.65 -54.70 80
NA 1878-09-12 00:00:00 TS 35.70 -54.50 80
NA 03:00:00 TS 35.76 -54.25 80
NA 06:00:00 TS 35.80 -54.00 80
NA 09:00:00 TS 35.80 -53.79 80
NA 12:00:00 TS 35.80 -53.60 80
NA 15:00:00 TS 35.84 -53.40 80
NA 18:00:00 TS 35.90 -53.20 80
NA 21:00:00 TS 35.95 -53.00 80
NA 1878-09-13 00:00:00 TS 36.00 -52.80 80
NA 03:00:00 TS 36.05 -52.60 80
NA 06:00:00 TS 36.10 -52.40 80
NA 09:00:00 TS 36.15 -52.21 80
NA 12:00:00 TS 36.20 -52.00 80
NA 15:00:00 TS 36.26 -51.72 77
NA 18:00:00 TS 36.30 -51.40 75
NA 21:00:00 TS 36.30 -51.10 75
NA 1878-09-14 00:00:00 TS 36.30 -50.80 75
NA 03:00:00 TS 36.35 -50.50 75
NA 06:00:00 TS 36.40 -50.20 75
NA 09:00:00 TS 36.41 -49.90 75
NA 12:00:00 TS 36.40 -49.60 75
NA 15:00:00 TS 36.36 -49.29 75
NA 18:00:00 TS 36.30 -49.00 75
NA 21:00:00 TS 36.25 -48.74 72
NA 1878-09-15 00:00:00 TS 36.20 -48.50 70
NA 03:00:00 TS 36.15 -48.25 70
NA 06:00:00 TS 36.10 -48.00 70
NA 09:00:00 TS 36.06 -47.78 70
NA 12:00:00 TS 36.00 -47.50 70
NA 15:00:00 TS 35.86 -47.10 70
NA 18:00:00 TS 35.70 -46.60 70
NA 21:00:00 TS 35.59 -46.02 67
NA 1878-09-16 00:00:00 TS 35.50 -45.40 65
NA 03:00:00 TS 35.45 -44.85 65
NA 06:00:00 TS 35.40 -44.30 65
NA 09:00:00 TS 35.30 -43.70 65
NA 12:00:00 TS 35.20 -43.10 65
NA 15:00:00 TS 35.15 -42.55 62
NA 18:00:00 TS 35.10 -42.00 60
NA 21:00:00 TS 35.00 -41.40 57
NA 1878-09-17 00:00:00 TS 34.90 -40.80 55
NA 03:00:00 TS 34.85 -40.25 52
NA 06:00:00 TS 34.80 -39.70 50
NA 09:00:00 TS 34.70 -39.10 50
NA 12:00:00 TS 34.60 -38.50 50
NA 15:00:00 TS 34.55 -37.95 47
NA 18:00:00 TS 34.50 -37.40 45
NA 21:00:00 TS 34.40 -36.80 45
NA 1878-09-18 00:00:00 TS 34.30 -36.20 45
NA 03:00:00 TS 34.25 -35.65 45
NA 06:00:00 TS 34.20 -35.10 45
NA 09:00:00 TS 34.10 -34.50 42
NA 12:00:00 TS 34.00 -33.90 40
NA 15:00:00 TS 33.94 -33.34 37
NA 18:00:00 TS 33.90 -32.80 35

Source Information

Agency Information
USA
TOKYO
CMA
HKO
NEWDELHI
REUNION
BOM
NADI
WELLINGTON
DS824
TD9636
TD9635
NEUMANN
MLC

All available IBTrACS Data

SEASON BASIN SUBBASIN ISO_TIME_________ NATURE LAT LON DIST2LAND LANDFALL IFLAG USA SSHS MLC LAT MLC LON MLC CLASS MLC WIND STORM SPEED STORM DIR
Year degrees north degrees east km km 1 degrees north degrees east kts kts degrees
1878 NA NA 1878-09-04 12:00:00 TS 12.50 -37.80 1739 1711 _____________O -1 12.50 -37.80 TD 30 12 295
1878 NA NA 15:00:00 TS 12.75 -38.35 1717 1675 _____________P -1 12.75 -38.35 TD 30 12 295
1878 NA NA 18:00:00 TS 13.00 -38.90 1675 1644 _____________O -1 13.00 -38.90 TD 30 12 295
1878 NA NA 21:00:00 TS 13.24 -39.45 1635 1613 _____________P -1 13.24 -39.45 TD 32 12 295
1878 NA NA 1878-09-05 00:00:00 TS 13.50 -40.00 1613 1601 _____________O -1 13.50 -40.00 TS 35 11 300
1878 NA NA 03:00:00 TS 13.78 -40.40 1601 1575 _____________P -1 13.78 -40.40 TS 37 12 299
1878 NA NA 06:00:00 TS 14.10 -41.10 1567 1479 _____________O -1 14.10 -41.10 TS 40 23 287
1878 NA NA 09:00:00 TS 14.44 -42.65 1479 1413 _____________P -1 14.44 -42.65 TS 42 31 283
1878 NA NA 12:00:00 TS 14.80 -44.20 1410 1392 _____________O -1 14.80 -44.20 TS 45 23 289
1878 NA NA 15:00:00 TS 15.18 -44.90 1401 1394 _____________P -1 15.18 -44.90 TS 47 13 307
1878 NA NA 18:00:00 TS 15.60 -45.30 1411 1405 _____________O -1 15.60 -45.30 TS 50 13 313
1878 NA NA 21:00:00 TS 16.03 -45.85 1413 1413 _____________P -1 16.03 -45.85 TS 52 14 310
1878 NA NA 1878-09-06 00:00:00 TS 16.50 -46.40 1434 1434 _____________O -1 16.50 -46.40 TS 55 14 312
1878 NA NA 03:00:00 TS 16.98 -46.95 1454 1454 _____________P -1 16.98 -46.95 TS 57 15 314
1878 NA NA 06:00:00 TS 17.50 -47.50 1483 1483 _____________O -1 17.50 -47.50 TS 60 15 315
1878 NA NA 09:00:00 TS 18.04 -48.05 1508 1508 _____________P -1 18.04 -48.05 TS 60 15 316
1878 NA NA 12:00:00 TS 18.60 -48.60 1546 1546 _____________O -1 18.60 -48.60 TS 60 15 317
1878 NA NA 15:00:00 TS 19.15 -49.15 1574 1574 _____________P -1 19.15 -49.15 TS 65 15 317
1878 NA NA 18:00:00 TS 19.70 -49.70 1575 1570 _____________O -1 19.70 -49.70 HU 70 15 317
1878 NA NA 21:00:00 TS 20.25 -50.25 1562 1562 _____________P -1 20.25 -50.25 HU 72 15 317
1878 NA NA 1878-09-07 00:00:00 TS 20.80 -50.80 1570 1529 _____________O -1 20.80 -50.80 HU 75 15 317
1878 NA NA 03:00:00 TS 21.35 -51.35 1519 1481 _____________P -1 21.35 -51.35 HU 75 15 317
1878 NA NA 06:00:00 TS 21.90 -51.90 1481 1445 _____________O -1 21.90 -51.90 HU 75 15 317
1878 NA NA 09:00:00 TS 22.44 -52.46 1435 1406 _____________P -1 22.44 -52.46 HU 75 15 317
1878 NA NA 12:00:00 TS 23.00 -53.00 1406 1378 _____________O -1 23.00 -53.00 HU 75 15 320
1878 NA NA 15:00:00 TS 23.60 -53.51 1383 1363 _____________P -1 23.60 -53.51 HU 77 15 323
1878 NA NA 18:00:00 TS 24.20 -54.00 1364 1345 _____________O -1 24.20 -54.00 HU 80 15 322
1878 NA NA 21:00:00 TS 24.76 -54.50 1351 1333 _____________P -1 24.76 -54.50 HU 80 14 320
1878 NA NA 1878-09-08 00:00:00 TS 25.30 -55.00 1337 1328 _____________O -1 25.30 -55.00 HU 80 14 320
1878 NA NA 03:00:00 TS 25.85 -55.50 1328 1323 _____________P -1 25.85 -55.50 HU 80 14 321
1878 NA NA 06:00:00 TS 26.40 -56.00 1330 1330 _____________O -1 26.40 -56.00 HU 80 14 320
1878 NA NA 09:00:00 TS 26.95 -56.54 1338 1331 _____________P -1 26.95 -56.54 HU 80 14 321
1878 NA NA 12:00:00 TS 27.50 -57.00 1344 1344 _____________O -1 27.50 -57.00 HU 80 13 330
1878 NA NA 15:00:00 TS 28.05 -57.25 1366 1366 _____________P -1 28.05 -57.25 HU 80 12 342
1878 NA NA 18:00:00 TS 28.60 -57.40 1412 1412 _____________O -1 28.60 -57.40 HU 80 11 346
1878 NA NA 21:00:00 TS 29.15 -57.57 1445 1445 _____________P -1 29.15 -57.57 HU 80 11 347
1878 NA NA 1878-09-09 00:00:00 TS 29.70 -57.70 1494 1494 _____________O -1 29.70 -57.70 HU 80 11 351
1878 NA NA 03:00:00 TS 30.26 -57.77 1545 1545 _____________P -1 30.26 -57.77 HU 80 11 355
1878 NA NA 06:00:00 TS 30.80 -57.80 1560 1509 _____________O -1 30.80 -57.80 HU 80 11 357
1878 NA NA 09:00:00 TS 31.32 -57.82 1509 1458 _____________P -1 31.32 -57.82 HU 80 10 1
1878 NA NA 12:00:00 TS 31.80 -57.80 1458 1421 _____________O -1 31.80 -57.80 HU 80 9 5
1878 NA NA 15:00:00 TS 32.21 -57.73 1421 1386 _____________P -1 32.21 -57.73 HU 80 8 12
1878 NA NA 18:00:00 TS 32.60 -57.60 1386 1355 _____________O -1 32.60 -57.60 HU 80 9 18
1878 NA NA 21:00:00 TS 33.05 -57.42 1345 1315 _____________P -1 33.05 -57.42 HU 80 10 20
1878 NA NA 1878-09-10 00:00:00 TS 33.50 -57.20 1315 1286 _____________O -1 33.50 -57.20 HU 80 9 23
1878 NA NA 03:00:00 TS 33.90 -56.99 1286 1258 _____________P -1 33.90 -56.99 HU 80 9 23
1878 NA NA 06:00:00 TS 34.30 -56.80 1258 1215 _____________O -1 34.30 -56.80 HU 80 10 18
1878 NA NA 09:00:00 TS 34.80 -56.64 1218 1178 _____________P -1 34.80 -56.64 HU 80 9 15
1878 NA NA 12:00:00 TS 35.20 -56.50 1178 1167 _____________O -1 35.20 -56.50 HU 80 6 26
1878 NA NA 15:00:00 TS 35.31 -56.35 1173 1173 _____________P -1 35.31 -56.35 HU 80 3 68
1878 NA NA 18:00:00 TS 35.30 -56.20 1176 1176 _____________O -1 35.30 -56.20 HU 80 2 81
1878 NA NA 21:00:00 TS 35.35 -56.05 1182 1172 _____________P -1 35.35 -56.05 HU 80 3 68
1878 NA NA 1878-09-11 00:00:00 TS 35.40 -55.90 1175 1167 _____________O -1 35.40 -55.90 HU 80 3 67
1878 NA NA 03:00:00 TS 35.46 -55.74 1171 1171 _____________P -1 35.46 -55.74 HU 80 3 68
1878 NA NA 06:00:00 TS 35.50 -55.60 1174 1174 _____________O -1 35.50 -55.60 HU 80 2 77
1878 NA NA 09:00:00 TS 35.50 -55.51 1177 1177 _____________P -1 35.50 -55.51 HU 80 2 90
1878 NA NA 12:00:00 TS 35.50 -55.40 1181 1181 _____________O -1 35.50 -55.40 HU 80 3 81
1878 NA NA 15:00:00 TS 35.54 -55.17 1188 1181 _____________P -1 35.54 -55.17 HU 80 4 76
1878 NA NA 18:00:00 TS 35.60 -54.90 1188 1188 _____________O -1 35.60 -54.90 HU 80 4 74
1878 NA NA 21:00:00 TS 35.65 -54.70 1196 1186 _____________P -1 35.65 -54.70 HU 80 3 73
1878 NA NA 1878-09-12 00:00:00 TS 35.70 -54.50 1193 1191 _____________O -1 35.70 -54.50 HU 80 4 74
1878 NA NA 03:00:00 TS 35.76 -54.25 1191 1191 _____________P -1 35.76 -54.25 HU 80 4 76
1878 NA NA 06:00:00 TS 35.80 -54.00 1201 1201 _____________O -1 35.80 -54.00 HU 80 4 83
1878 NA NA 09:00:00 TS 35.80 -53.79 1201 1201 _____________P -1 35.80 -53.79 HU 80 3 90
1878 NA NA 12:00:00 TS 35.80 -53.60 1201 1201 _____________O -1 35.80 -53.60 HU 80 3 82
1878 NA NA 15:00:00 TS 35.84 -53.40 1201 1190 _____________P -1 35.84 -53.40 HU 80 3 73
1878 NA NA 18:00:00 TS 35.90 -53.20 1190 1190 _____________O -1 35.90 -53.20 HU 80 3 72
1878 NA NA 21:00:00 TS 35.95 -53.00 1190 1179 _____________P -1 35.95 -53.00 HU 80 3 73
1878 NA NA 1878-09-13 00:00:00 TS 36.00 -52.80 1179 1179 _____________O -1 36.00 -52.80 HU 80 3 73
1878 NA NA 03:00:00 TS 36.05 -52.60 1180 1169 _____________P -1 36.05 -52.60 HU 80 3 73
1878 NA NA 06:00:00 TS 36.10 -52.40 1169 1169 _____________O -1 36.10 -52.40 HU 80 3 72
1878 NA NA 09:00:00 TS 36.15 -52.21 1171 1159 _____________P -1 36.15 -52.21 HU 80 3 73
1878 NA NA 12:00:00 TS 36.20 -52.00 1161 1152 _____________O -1 36.20 -52.00 HU 80 4 75
1878 NA NA 15:00:00 TS 36.26 -51.72 1152 1152 _____________P -1 36.26 -51.72 HU 77 5 78
1878 NA NA 18:00:00 TS 36.30 -51.40 1155 1155 _____________O -1 36.30 -51.40 HU 75 5 85
1878 NA NA 21:00:00 TS 36.30 -51.10 1158 1158 _____________P -1 36.30 -51.10 HU 75 5 90
1878 NA NA 1878-09-14 00:00:00 TS 36.30 -50.80 1162 1162 _____________O -1 36.30 -50.80 HU 75 5 84
1878 NA NA 03:00:00 TS 36.35 -50.50 1167 1156 _____________P -1 36.35 -50.50 HU 75 5 78
1878 NA NA 06:00:00 TS 36.40 -50.20 1161 1161 _____________O -1 36.40 -50.20 HU 75 5 82
1878 NA NA 09:00:00 TS 36.41 -49.90 1166 1166 _____________P -1 36.41 -49.90 HU 75 5 90
1878 NA NA 12:00:00 TS 36.40 -49.60 1173 1173 _____________O -1 36.40 -49.60 HU 75 5 97
1878 NA NA 15:00:00 TS 36.36 -49.29 1179 1179 _____________P -1 36.36 -49.29 HU 75 5 102
1878 NA NA 18:00:00 TS 36.30 -49.00 1197 1197 _____________O -1 36.30 -49.00 HU 75 5 104
1878 NA NA 21:00:00 TS 36.25 -48.74 1215 1215 _____________P -1 36.25 -48.74 HU 72 4 104
1878 NA NA 1878-09-15 00:00:00 TS 36.20 -48.50 1220 1220 _____________O -1 36.20 -48.50 HU 70 4 104
1878 NA NA 03:00:00 TS 36.15 -48.25 1236 1236 _____________P -1 36.15 -48.25 HU 70 4 104
1878 NA NA 06:00:00 TS 36.10 -48.00 1244 1244 _____________O -1 36.10 -48.00 HU 70 4 103
1878 NA NA 09:00:00 TS 36.06 -47.78 1250 1250 _____________P -1 36.06 -47.78 HU 70 4 104
1878 NA NA 12:00:00 TS 36.00 -47.50 1270 1270 _____________O -1 36.00 -47.50 HU 70 6 111
1878 NA NA 15:00:00 TS 35.86 -47.10 1293 1293 _____________P -1 35.86 -47.10 HU 70 8 112
1878 NA NA 18:00:00 TS 35.70 -46.60 1330 1330 _____________O -1 35.70 -46.60 HU 70 9 107
1878 NA NA 21:00:00 TS 35.59 -46.02 1362 1362 _____________P -1 35.59 -46.02 HU 67 10 102
1878 NA NA 1878-09-16 00:00:00 TS 35.50 -45.40 1394 1394 _____________O -1 35.50 -45.40 HU 65 10 98
1878 NA NA 03:00:00 TS 35.45 -44.85 1424 1424 _____________P -1 35.45 -44.85 HU 65 9 96
1878 NA NA 06:00:00 TS 35.40 -44.30 1449 1449 _____________O -1 35.40 -44.30 HU 65 9 99
1878 NA NA 09:00:00 TS 35.30 -43.70 1485 1485 _____________P -1 35.30 -43.70 HU 65 10 102
1878 NA NA 12:00:00 TS 35.20 -43.10 1521 1521 _____________O -1 35.20 -43.10 HU 65 9 99
1878 NA NA 15:00:00 TS 35.15 -42.55 1554 1554 _____________P -1 35.15 -42.55 HU 62 9 96
1878 NA NA 18:00:00 TS 35.10 -42.00 1583 1583 _____________O -1 35.10 -42.00 TS 60 10 99
1878 NA NA 21:00:00 TS 35.00 -41.40 1622 1622 _____________P -1 35.00 -41.40 TS 57 10 101
1878 NA NA 1878-09-17 00:00:00 TS 34.90 -40.80 1662 1662 _____________O -1 34.90 -40.80 TS 55 10 99
1878 NA NA 03:00:00 TS 34.85 -40.25 1698 1698 _____________P -1 34.85 -40.25 TS 52 9 96
1878 NA NA 06:00:00 TS 34.80 -39.70 1730 1730 _____________O -1 34.80 -39.70 TS 50 10 99
1878 NA NA 09:00:00 TS 34.70 -39.10 1771 1771 _____________P -1 34.70 -39.10 TS 50 10 101
1878 NA NA 12:00:00 TS 34.60 -38.50 1814 1814 _____________O -1 34.60 -38.50 TS 50 10 99
1878 NA NA 15:00:00 TS 34.55 -37.95 1851 1851 _____________P -1 34.55 -37.95 TS 47 9 96
1878 NA NA 18:00:00 TS 34.50 -37.40 1886 1886 _____________O -1 34.50 -37.40 TS 45 10 99
1878 NA NA 21:00:00 TS 34.40 -36.80 1930 1930 _____________P -1 34.40 -36.80 TS 45 10 101
1878 NA NA 1878-09-18 00:00:00 TS 34.30 -36.20 1954 1909 _____________O -1 34.30 -36.20 TS 45 10 99
1878 NA NA 03:00:00 TS 34.25 -35.65 1907 1853 _____________P -1 34.25 -35.65 TS 45 9 96
1878 NA NA 06:00:00 TS 34.20 -35.10 1853 1797 _____________O -1 34.20 -35.10 TS 45 10 99
1878 NA NA 09:00:00 TS 34.10 -34.50 1797 1741 _____________P -1 34.10 -34.50 TS 42 10 101
1878 NA NA 12:00:00 TS 34.00 -33.90 1741 1694 _____________O -1 34.00 -33.90 TS 40 10 100
1878 NA NA 15:00:00 TS 33.94 -33.34 1685 1641 _____________P -1 33.94 -33.34 TS 37 9 96
1878 NA NA 18:00:00 TS 33.90 -32.80 1641 _____________O -1 33.90 -32.80 TS 35 9 95